Time;durP1;ratioP1;P1;durP2;ratioP2;P2;SDS_P1;SDS_P2;PMS_P1;PMS_P2;Temp;Humidity;BMP_temperature;BMP_pressure;BME280_temperature;BME280_humidity;BME280_pressure;Samples;Min_cycle;Max_cycle;Signal;HPM_P1;HPM_P2
2023/11/30 00:00:43;;;;;;;7.13;6.37;;;;;;;0.35;100.00;100274.44;5110671;28;20020;-35
2023/11/30 00:03:08;;;;;;;8.17;6.93;;;;;;;0.32;100.00;100268.63;5110243;28;20031;-35
2023/11/30 00:05:34;;;;;;;8.90;7.13;;;;;;;0.35;100.00;100266.44;5110832;28;20024;-35
2023/11/30 00:07:59;;;;;;;8.60;7.27;;;;;;;0.24;100.00;100251.75;5102274;28;20108;-36
2023/11/30 00:10:24;;;;;;;10.30;8.13;;;;;;;0.05;100.00;100230.97;5096831;28;20622;-35
2023/11/30 00:12:50;;;;;;;7.43;6.57;;;;;;;0.33;100.00;100262.31;5096509;28;20055;-35
2023/11/30 00:15:15;;;;;;;8.33;6.60;;;;;;;0.41;100.00;100257.75;5096963;28;20039;-35
2023/11/30 00:17:40;;;;;;;8.10;7.07;;;;;;;0.36;100.00;100254.81;5096898;28;20085;-35
2023/11/30 00:20:06;;;;;;;9.27;7.10;;;;;;;0.40;100.00;100252.63;5096678;28;20024;-35
2023/11/30 00:22:32;;;;;;;9.38;7.85;;;;;;;0.35;100.00;100252.34;5095972;28;20035;-35
2023/11/30 00:24:57;;;;;;;11.40;8.37;;;;;;;0.31;100.00;100249.19;5097069;28;20103;-35
2023/11/30 00:27:22;;;;;;;9.33;7.87;;;;;;;0.25;100.00;100242.75;5096234;28;20024;-35
2023/11/30 00:29:48;;;;;;;8.73;7.80;;;;;;;0.30;100.00;100257.38;5095937;28;20111;-35
2023/11/30 00:32:13;;;;;;;11.27;8.10;;;;;;;0.23;100.00;100244.75;5096080;28;20051;-35
2023/11/30 00:34:38;;;;;;;9.87;8.13;;;;;;;0.28;100.00;100235.41;5096086;28;20028;-35
2023/11/30 00:37:04;;;;;;;9.50;7.23;;;;;;;0.45;100.00;100240.44;5096301;28;20471;-35
2023/11/30 00:39:29;;;;;;;10.07;8.00;;;;;;;0.40;100.00;100244.63;5095674;28;20482;-35
2023/11/30 00:41:54;;;;;;;9.90;8.37;;;;;;;0.39;100.00;100241.16;5095726;28;20509;-36
2023/11/30 00:44:21;;;;;;;10.03;8.93;;;;;;;0.41;100.00;100238.31;5095919;28;20054;-35
2023/11/30 00:46:46;;;;;;;;;;;;;;;0.46;100.00;100231.44;5096568;28;20024;-35
2023/11/30 00:49:11;;;;;;;8.17;7.23;;;;;;;0.49;100.00;100236.41;5095775;28;20366;-35
2023/11/30 00:51:36;;;;;;;10.80;8.93;;;;;;;0.36;100.00;100236.19;5096338;28;20330;-35
2023/11/30 00:54:02;;;;;;;9.60;8.60;;;;;;;0.34;100.00;100237.34;5096269;28;20074;-35
2023/11/30 00:56:28;;;;;;;10.98;8.60;;;;;;;0.21;100.00;100220.19;5096080;28;20156;-35
2023/11/30 00:58:53;;;;;;;14.10;9.40;;;;;;;0.31;100.00;100227.09;5095820;28;20133;-35
2023/11/30 01:01:19;;;;;;;8.90;8.00;;;;;;;0.33;100.00;100219.75;5095545;28;20099;-35
2023/11/30 01:03:44;;;;;;;8.73;7.78;;;;;;;0.37;100.00;100223.72;5095449;28;20608;-35
2023/11/30 01:06:10;;;;;;;9.20;7.50;;;;;;;0.39;100.00;100214.56;5095742;28;20036;-35
2023/11/30 01:08:35;;;;;;;8.97;7.87;;;;;;;0.49;100.00;100223.09;5095434;28;20036;-35
2023/11/30 01:11:02;;;;;;;12.17;9.97;;;;;;;0.36;100.00;100230.03;5095352;28;20039;-34
2023/11/30 01:13:27;;;;;;;9.10;7.70;;;;;;;0.36;100.00;100230.03;5095028;28;20476;-35
2023/11/30 01:15:53;;;;;;;8.20;7.40;;;;;;;0.23;100.00;100204.88;5095315;28;20115;-35
2023/11/30 01:18:18;;;;;;;9.67;8.20;;;;;;;0.32;100.00;100223.41;5095434;28;20031;-35
2023/11/30 01:20:43;;;;;;;9.90;8.60;;;;;;;0.35;100.00;100223.06;5094209;28;20028;-35
2023/11/30 01:23:09;;;;;;;8.90;7.60;;;;;;;0.37;100.00;100221.88;5095135;28;20028;-35
2023/11/30 01:25:34;;;;;;;8.77;7.60;;;;;;;0.41;100.00;100217.84;5095687;28;20028;-35
2023/11/30 01:28:00;;;;;;;10.00;8.70;;;;;;;0.31;100.00;100216.44;5095795;28;20031;-35
2023/11/30 01:30:25;;;;;;;8.60;7.72;;;;;;;0.28;100.00;100214.16;5095496;28;20113;-35
2023/11/30 01:32:51;;;;;;;9.43;8.37;;;;;;;0.19;100.00;100208.88;5094935;28;20025;-34
2023/11/30 01:35:17;;;;;;;9.77;8.77;;;;;;;0.25;100.00;100213.50;5094958;28;20094;-34
2023/11/30 01:37:42;;;;;;;10.75;8.52;;;;;;;0.28;100.00;100222.94;5094515;28;20028;-34
2023/11/30 01:40:11;;;;;;;10.20;8.57;;;;;;;0.36;100.00;100222.06;5095077;28;20024;-34
2023/11/30 01:42:37;;;;;;;10.93;9.82;;;;;;;0.12;100.00;100205.31;5095268;28;20035;-35
2023/11/30 01:45:03;;;;;;;11.40;10.18;;;;;;;0.14;100.00;100213.09;5094689;28;20024;-34
2023/11/30 01:47:30;;;;;;;11.13;9.48;;;;;;;0.21;100.00;100211.38;5094647;28;20476;-34
2023/11/30 01:49:58;;;;;;;9.45;8.45;;;;;;;0.21;100.00;100219.38;5094289;28;20028;-34
2023/11/30 01:52:24;;;;;;;8.88;7.95;;;;;;;0.19;100.00;100208.88;5094243;28;20461;-35
2023/11/30 01:54:49;;;;;;;12.25;8.50;;;;;;;0.32;100.00;100218.09;5094236;28;20031;-35
2023/11/30 01:57:15;;;;;;;10.75;9.52;;;;;;;0.25;100.00;100216.16;5095538;28;20044;-35
2023/11/30 01:59:44;;;;;;;14.15;10.38;;;;;;;0.13;100.00;100198.16;5094450;28;20024;-35
2023/11/30 02:02:09;;;;;;;11.18;10.07;;;;;;;0.11;100.00;100208.97;5094423;28;20024;-35
2023/11/30 02:04:39;;;;;;;11.33;10.07;;;;;;;0.06;100.00;100213.16;5094314;28;20380;-35
2023/11/30 02:07:04;;;;;;;9.90;8.68;;;;;;;0.21;100.00;100212.22;5094851;28;20078;-35
2023/11/30 02:09:30;;;;;;;11.60;9.27;;;;;;;0.21;100.00;100208.72;5094220;28;20040;-35
2023/11/30 02:11:55;;;;;;;11.73;9.83;;;;;;;0.07;100.00;100177.59;5094199;28;20028;-35
2023/11/30 02:14:20;;;;;;;11.00;9.70;;;;;;;0.17;100.00;100207.44;5094185;28;20035;-35
2023/11/30 02:16:46;;;;;;;12.40;10.87;;;;;;;0.08;100.00;100200.50;5094400;28;20024;-35
2023/11/30 02:19:11;;;;;;;11.37;9.83;;;;;;;0.05;100.00;100188.41;5094051;28;20031;-35
2023/11/30 02:21:36;;;;;;;11.03;9.83;;;;;;;0.04;100.00;100204.53;5093791;28;20024;-35
2023/11/30 02:24:02;;;;;;;10.63;9.37;;;;;;;0.18;100.00;100195.78;5093691;28;20032;-35
2023/11/30 02:26:27;;;;;;;11.57;9.47;;;;;;;0.24;100.00;100195.91;5094265;28;20092;-35
2023/11/30 02:28:53;;;;;;;12.53;9.97;;;;;;;0.17;100.00;100189.63;5093682;28;20274;-35
2023/11/30 02:31:18;;;;;;;10.90;9.80;;;;;;;0.21;100.00;100190.94;5093465;28;20024;-35
2023/11/30 02:33:43;;;;;;;12.80;10.63;;;;;;;0.11;100.00;100177.06;5093612;28;20031;-36
2023/11/30 02:36:09;;;;;;;11.37;9.73;;;;;;;0.23;100.00;100177.44;5094103;28;20024;-35
2023/11/30 02:38:34;;;;;;;12.45;10.60;;;;;;;0.21;100.00;100185.63;5094048;28;20031;-35
2023/11/30 02:41:00;;;;;;;12.67;10.93;;;;;;;0.20;100.00;100178.66;5093608;28;20035;-35
2023/11/30 02:43:28;;;;;;;11.90;9.37;;;;;;;0.19;100.00;100184.94;5093755;28;20028;-35
2023/11/30 02:45:53;;;;;;;11.05;9.43;;;;;;;0.12;100.00;100186.69;5093676;28;20036;-35
2023/11/30 02:48:18;;;;;;;11.57;10.37;;;;;;;0.04;100.00;100184.09;5093659;28;20040;-35
2023/11/30 02:50:44;;;;;;;10.82;9.70;;;;;;;0.01;100.00;100176.50;5094250;28;20026;-35
2023/11/30 02:53:09;;;;;;;13.07;11.00;;;;;;;-0.17;100.00;100166.16;5093618;28;20449;-35
2023/11/30 02:55:34;;;;;;;11.97;10.00;;;;;;;-0.09;100.00;100187.38;5093103;28;20080;-35
2023/11/30 02:58:00;;;;;;;13.13;10.30;;;;;;;-0.09;100.00;100184.69;5093638;28;20028;-35
2023/11/30 03:00:25;;;;;;;11.73;10.03;;;;;;;0.07;100.00;100183.75;5093967;28;20024;-35
2023/11/30 03:02:50;;;;;;;12.63;11.20;;;;;;;0.06;100.00;100171.47;5093230;28;20028;-35
2023/11/30 03:05:16;;;;;;;13.23;11.40;;;;;;;0.02;100.00;100164.84;5093318;28;20039;-35
2023/11/30 03:07:41;;;;;;;11.43;9.30;;;;;;;0.13;100.00;100168.91;5093464;28;20107;-35
2023/11/30 03:10:07;;;;;;;15.17;10.40;;;;;;;0.06;100.00;100178.63;5094070;28;20269;-35
2023/11/30 03:12:32;;;;;;;11.55;9.43;;;;;;;0.13;100.00;100171.56;5093428;28;20032;-35
2023/11/30 03:14:57;;;;;;;10.27;8.77;;;;;;;0.20;100.00;100173.34;5093178;28;20454;-35
2023/11/30 03:17:23;;;;;;;10.47;9.20;;;;;;;0.25;100.00;100181.59;5093388;28;20455;-35
2023/11/30 03:19:48;;;;;;;10.50;9.27;;;;;;;0.20;100.00;100160.03;5093472;28;20484;-35
2023/11/30 03:22:13;;;;;;;9.50;8.50;;;;;;;0.34;100.00;100169.06;5093939;28;20427;-35
2023/11/30 03:24:39;;;;;;;9.87;8.90;;;;;;;0.48;100.00;100186.03;5093129;28;20024;-35
2023/11/30 03:27:04;;;;;;;10.40;9.30;;;;;;;0.47;100.00;100182.53;5093338;28;20075;-35
2023/11/30 03:29:30;;;;;;;10.43;9.33;;;;;;;0.46;100.00;100185.38;5092977;28;20089;-35
2023/11/30 03:31:55;;;;;;;10.30;9.20;;;;;;;0.46;100.00;100186.22;5093053;28;20697;-35
2023/11/30 03:34:20;;;;;;;10.53;9.43;;;;;;;0.46;100.00;100175.56;5093527;28;20032;-35
2023/11/30 03:36:46;;;;;;;10.03;9.03;;;;;;;0.47;100.00;100176.41;5093205;28;20465;-35
2023/11/30 03:39:11;;;;;;;11.20;10.00;;;;;;;0.34;100.00;100174.38;5093189;28;20027;-35
2023/11/30 03:41:36;;;;;;;10.93;9.43;;;;;;;0.27;100.00;100148.66;5093210;28;20032;-35
2023/11/30 03:44:02;;;;;;;11.27;8.67;;;;;;;0.44;100.00;100168.75;5096332;28;20119;-35
2023/11/30 03:46:27;;;;;;;11.43;8.67;;;;;;;0.38;100.00;100158.84;5097606;28;20427;-35
2023/11/30 03:48:56;;;;;;;11.63;9.10;;;;;;;0.50;100.00;100170.72;5096979;28;20020;-35
2023/11/30 03:51:21;;;;;;;11.75;9.52;;;;;;;0.51;100.00;100162.56;5096871;28;20028;-35
2023/11/30 03:53:47;;;;;;;12.23;10.40;;;;;;;0.49;100.00;100161.09;5097126;28;20032;-35
2023/11/30 03:56:12;;;;;;;10.65;9.50;;;;;;;0.56;100.00;100159.34;5097173;28;20052;-35
2023/11/30 03:58:38;;;;;;;10.80;9.70;;;;;;;0.45;100.00;100160.63;5096723;28;20032;-35
2023/11/30 04:01:04;;;;;;;11.67;10.30;;;;;;;0.34;100.00;100157.56;5096847;28;20173;-35
2023/11/30 04:03:29;;;;;;;12.98;10.52;;;;;;;0.31;100.00;100164.09;5096715;28;20036;-35
2023/11/30 04:05:54;;;;;;;13.17;11.53;;;;;;;0.24;100.00;100155.16;5096756;28;20392;-35
2023/11/30 04:08:20;;;;;;;11.77;9.90;;;;;;;0.32;100.00;100162.25;5096628;28;20028;-35
2023/11/30 04:10:45;;;;;;;13.77;9.77;;;;;;;0.31;100.00;100160.59;5096864;28;20030;-35
2023/11/30 04:13:10;;;;;;;11.43;9.93;;;;;;;0.37;100.00;100162.53;5096548;28;20101;-35
2023/11/30 04:15:36;;;;;;;13.83;12.33;;;;;;;0.18;100.00;100147.91;5096427;28;20169;-35
2023/11/30 04:18:01;;;;;;;11.20;9.90;;;;;;;0.22;100.00;100150.03;5096386;28;20028;-35
2023/11/30 04:20:27;;;;;;;11.57;10.40;;;;;;;0.21;100.00;100145.72;5096931;28;20497;-35
2023/11/30 04:22:52;;;;;;;11.50;10.10;;;;;;;0.17;100.00;100138.28;5097102;28;20028;-35
2023/11/30 04:25:18;;;;;;;10.63;9.47;;;;;;;0.31;100.00;100152.63;5095998;28;20028;-35
2023/11/30 04:27:43;;;;;;;11.27;10.07;;;;;;;0.34;100.00;100145.13;5096764;28;20050;-35
2023/11/30 04:30:09;;;;;;;14.17;10.90;;;;;;;0.20;100.00;100149.41;5096224;28;20250;-35
2023/11/30 04:32:34;;;;;;;11.18;9.60;;;;;;;0.17;100.00;100133.78;5096685;28;20039;-35
2023/11/30 04:34:59;;;;;;;14.07;10.10;;;;;;;0.32;100.00;100148.94;5095103;28;20024;-35
2023/11/30 04:37:25;;;;;;;10.83;9.73;;;;;;;0.17;100.00;100138.28;5096275;28;20456;-35
2023/11/30 04:39:50;;;;;;;11.27;10.07;;;;;;;0.11;100.00;100150.47;5096023;28;20095;-35
2023/11/30 04:42:15;;;;;;;11.67;9.40;;;;;;;0.11;100.00;100147.81;5095562;28;20035;-35
2023/11/30 04:44:41;;;;;;;11.47;9.93;;;;;;;0.06;100.00;100139.56;5096473;28;20073;-35
2023/11/30 04:47:06;;;;;;;11.70;10.33;;;;;;;0.13;100.00;100151.13;5096469;28;20020;-35
2023/11/30 04:49:32;;;;;;;13.27;11.77;;;;;;;-0.03;100.00;100160.06;5095454;28;20039;-35
2023/11/30 04:51:57;;;;;;;18.70;12.70;;;;;;;0.08;100.00;100161.47;5096053;28;20258;-35
2023/11/30 04:54:22;;;;;;;15.80;12.63;;;;;;;0.06;100.00;100154.69;5095865;28;20034;-35
2023/11/30 04:56:48;;;;;;;15.43;12.27;;;;;;;0.00;100.00;100153.56;5096024;28;20493;-35
2023/11/30 04:59:13;;;;;;;16.07;12.73;;;;;;;-0.24;100.00;100122.72;5095649;28;20085;-35
2023/11/30 05:01:38;;;;;;;15.93;13.27;;;;;;;-0.19;100.00;100146.09;5095314;28;20028;-35
2023/11/30 05:04:04;;;;;;;14.87;12.53;;;;;;;-0.21;100.00;100148.09;5096038;28;20032;-36
2023/11/30 05:06:30;;;;;;;12.35;10.80;;;;;;;-0.17;100.00;100152.03;5095474;28;20097;-35
2023/11/30 05:08:55;;;;;;;10.68;9.50;;;;;;;-0.03;100.00;100154.75;5095442;28;20028;-35
2023/11/30 05:11:20;;;;;;;12.07;10.20;;;;;;;-0.04;100.00;100141.66;5095453;28;20107;-35
2023/11/30 05:13:46;;;;;;;12.97;10.30;;;;;;;0.13;100.00;100151.13;5095298;28;20055;-35
2023/11/30 05:16:12;;;;;;;13.37;11.97;;;;;;;0.01;100.00;100131.31;5095505;28;20030;-35
2023/11/30 05:18:37;;;;;;;;;;;;;;;0.19;100.00;100139.75;5095358;28;20036;-35
2023/11/30 05:21:03;;;;;;;13.50;10.50;;;;;;;0.01;100.00;100123.31;5095524;28;19957;-35
2023/11/30 05:23:28;;;;;;;14.73;10.95;;;;;;;0.10;100.00;100132.88;5095115;28;20032;-35
2023/11/30 05:25:53;;;;;;;13.07;11.13;;;;;;;0.16;100.00;100141.97;5095652;28;20170;-35
2023/11/30 05:28:19;;;;;;;14.67;11.37;;;;;;;0.15;100.00;100140.31;5095052;28;20039;-35
2023/11/30 05:30:44;;;;;;;14.03;11.80;;;;;;;0.14;100.00;100139.47;5095603;28;20023;-35
2023/11/30 05:33:10;;;;;;;14.97;12.60;;;;;;;0.09;100.00;100139.19;5094991;28;20034;-35
2023/11/30 05:35:36;;;;;;;;;;;;;;;0.18;100.00;100138.09;5095625;28;20031;-35
2023/11/30 05:38:02;;;;;;;14.95;12.38;;;;;;;-0.01;100.00;100142.09;5094817;28;20006;-35
2023/11/30 05:40:28;;;;;;;12.50;11.20;;;;;;;0.06;100.00;100141.41;5095113;28;20020;-35
2023/11/30 05:42:53;;;;;;;14.30;11.87;;;;;;;-0.05;100.00;100126.69;5094539;28;20020;-35
2023/11/30 05:45:19;;;;;;;13.82;10.88;;;;;;;0.06;100.00;100134.25;5094101;28;20312;-35
2023/11/30 05:47:45;;;;;;;12.98;11.57;;;;;;;0.08;100.00;100136.72;5093899;28;20032;-35
2023/11/30 05:50:10;;;;;;;11.80;9.93;;;;;;;0.17;100.00;100132.97;5095248;28;20028;-35
2023/11/30 05:52:35;;;;;;;12.63;11.33;;;;;;;0.16;100.00;100134.00;5094485;28;20113;-35
2023/11/30 05:55:03;;;;;;;12.90;11.50;;;;;;;0.19;100.00;100134.44;5094997;28;20656;-35
2023/11/30 05:57:28;;;;;;;13.07;10.90;;;;;;;0.19;100.00;100118.47;5093709;28;20051;-35
2023/11/30 05:59:54;;;;;;;12.67;10.73;;;;;;;0.23;100.00;100133.06;5094131;28;20028;-34
2023/11/30 06:02:21;;;;;;;16.73;11.73;;;;;;;0.18;100.00;100138.09;5094750;28;20024;-34
2023/11/30 06:04:51;;;;;;;14.40;11.27;;;;;;;0.19;100.00;100139.75;5093571;28;20020;-35
2023/11/30 06:07:16;;;;;;;13.00;11.35;;;;;;;0.27;100.00;100141.50;5094231;28;20483;-35
2023/11/30 06:09:41;;;;;;;11.97;10.77;;;;;;;0.28;100.00;100137.84;5093981;28;20028;-35
2023/11/30 06:12:08;;;;;;;13.03;11.63;;;;;;;0.35;100.00;100153.91;5094660;28;20277;-35
2023/11/30 06:14:34;;;;;;;13.23;11.10;;;;;;;0.24;100.00;100142.72;5093822;28;20028;-35
2023/11/30 06:16:59;;;;;;;14.03;11.40;;;;;;;0.29;100.00;100138.66;5093856;28;20116;-35
2023/11/30 06:19:24;;;;;;;14.57;13.07;;;;;;;0.10;100.00;100151.50;5093714;28;20054;-35
2023/11/30 06:21:50;;;;;;;14.10;12.37;;;;;;;0.06;100.00;100158.16;5094157;28;20035;-35
2023/11/30 06:24:15;;;;;;;15.65;13.15;;;;;;;0.02;100.00;100162.19;5093708;28;20031;-35
2023/11/30 06:26:41;;;;;;;13.37;11.00;;;;;;;0.17;100.00;100160.38;5094289;28;20028;-35
2023/11/30 06:29:10;;;;;;;14.70;12.82;;;;;;;0.01;100.00;100159.72;5093716;28;20028;-35
2023/11/30 06:31:36;;;;;;;15.55;12.23;;;;;;;-0.14;100.00;100146.38;5094223;28;20028;-35
2023/11/30 06:34:01;;;;;;;15.90;12.77;;;;;;;-0.08;100.00;100157.13;5093904;28;20449;-35
2023/11/30 06:36:27;;;;;;;15.00;11.07;;;;;;;-0.05;100.00;100138.16;5093884;28;20123;-35
2023/11/30 06:38:52;;;;;;;13.13;11.73;;;;;;;0.02;100.00;100162.19;5093591;28;20085;-35
2023/11/30 06:41:18;;;;;;;19.35;14.00;;;;;;;0.00;100.00;100161.56;5094063;28;20027;-35
2023/11/30 06:43:43;;;;;;;15.37;12.10;;;;;;;0.07;100.00;100159.00;5093784;28;20109;-35
2023/11/30 06:46:09;;;;;;;11.97;10.67;;;;;;;0.15;100.00;100170.38;5094623;28;20107;-35
2023/11/30 06:48:34;;;;;;;14.00;11.63;;;;;;;0.17;100.00;100163.03;5093644;28;20077;-35
2023/11/30 06:51:00;;;;;;;13.85;12.38;;;;;;;0.09;100.00;100168.44;5093990;28;20468;-35
2023/11/30 06:53:25;;;;;;;13.53;11.63;;;;;;;0.11;100.00;100160.28;5093931;28;20031;-35
2023/11/30 06:55:50;;;;;;;16.10;13.63;;;;;;;-0.06;100.00;100151.59;5093491;28;20040;-35
2023/11/30 06:58:17;;;;;;;11.47;10.27;;;;;;;0.14;100.00;100162.56;5093291;28;20039;-35
2023/11/30 07:00:43;;;;;;;13.77;11.70;;;;;;;0.11;100.00;100165.59;5093253;28;20020;-35
2023/11/30 07:03:08;;;;;;;13.68;12.02;;;;;;;0.15;100.00;100170.38;5093824;28;20035;-35
2023/11/30 07:05:34;;;;;;;15.27;12.93;;;;;;;0.19;100.00;100174.31;5094084;28;20040;-35
2023/11/30 07:07:59;;;;;;;13.23;11.73;;;;;;;0.33;100.00;100167.38;5093553;28;20372;-35
2023/11/30 07:10:24;;;;;;;13.52;11.43;;;;;;;0.41;100.00;100169.97;5094333;28;20360;-35
2023/11/30 07:12:50;;;;;;;13.63;11.43;;;;;;;0.46;100.00;100161.44;5093754;28;20120;-35
2023/11/30 07:15:15;;;;;;;14.73;12.70;;;;;;;0.39;100.00;100165.81;5093503;28;20414;-35
2023/11/30 07:17:41;;;;;;;16.35;12.85;;;;;;;0.24;100.00;100165.81;5095172;28;20028;-35
2023/11/30 07:20:07;;;;;;;18.83;13.77;;;;;;;0.05;100.00;100175.13;5098158;28;20345;-35
2023/11/30 07:22:34;;;;;;;14.35;12.82;;;;;;;-0.01;100.00;100179.31;5097460;28;20471;-35
2023/11/30 07:24:59;;;;;;;15.07;12.68;;;;;;;-0.11;100.00;100161.94;5097383;28;20069;-35
2023/11/30 07:27:26;;;;;;;20.23;13.70;;;;;;;0.05;100.00;100177.78;5098177;28;20024;-35
2023/11/30 07:29:51;;;;;;;14.52;12.52;;;;;;;0.05;100.00;100175.13;5096947;28;20024;-35
2023/11/30 07:32:16;;;;;;;16.77;13.32;;;;;;;-0.02;100.00;100172.34;5097564;28;20035;-35
2023/11/30 07:34:45;;;;;;;14.53;12.87;;;;;;;0.04;100.00;100175.28;5097523;28;20480;-35
2023/11/30 07:37:14;;;;;;;15.45;12.32;;;;;;;0.07;100.00;100178.44;5097999;28;20028;-35
2023/11/30 07:39:40;;;;;;;15.85;12.80;;;;;;;0.10;100.00;100172.75;5097159;28;20447;-35
2023/11/30 07:42:06;;;;;;;13.27;11.93;;;;;;;0.27;100.00;100180.59;5096886;28;20028;-35
2023/11/30 07:44:32;;;;;;;17.08;13.32;;;;;;;0.23;100.00;100172.94;5096787;28;20112;-35
2023/11/30 07:46:57;;;;;;;15.75;13.70;;;;;;;0.37;100.00;100179.31;5097096;28;20444;-35
2023/11/30 07:49:22;;;;;;;16.97;13.60;;;;;;;0.38;100.00;100178.31;5097038;28;20058;-35
2023/11/30 07:51:48;;;;;;;16.33;14.07;;;;;;;0.31;100.00;100182.72;5097006;28;20027;-35
2023/11/30 07:54:13;;;;;;;18.93;13.33;;;;;;;0.28;100.00;100166.28;5096602;28;20028;-35
2023/11/30 07:56:38;;;;;;;17.43;14.53;;;;;;;0.22;100.00;100181.13;5097570;28;20048;-35
2023/11/30 07:59:04;;;;;;;14.87;13.27;;;;;;;0.30;100.00;100188.22;5097331;28;20039;-35
2023/11/30 08:01:29;;;;;;;16.60;13.70;;;;;;;0.27;100.00;100184.06;5096836;28;20038;-35
2023/11/30 08:03:54;;;;;;;17.00;12.93;;;;;;;0.39;100.00;100185.28;5097523;28;20442;-35
2023/11/30 08:06:20;;;;;;;21.97;15.47;;;;;;;0.42;100.00;100186.75;5096654;28;20028;-35
2023/11/30 08:08:45;;;;;;;15.73;13.70;;;;;;;0.38;100.00;100172.16;5096303;28;20077;-35
2023/11/30 08:11:12;;;;;;;17.13;14.57;;;;;;;0.38;100.00;100180.97;5097165;28;20111;-35
2023/11/30 08:13:37;;;;;;;16.80;14.15;;;;;;;0.39;100.00;100185.28;5096350;28;20032;-35
2023/11/30 08:16:04;;;;;;;18.17;14.27;;;;;;;0.29;100.00;100173.25;5096120;28;20130;-35
2023/11/30 08:18:30;;;;;;;;;;;;;;;0.54;100.00;100189.78;5096564;28;20484;-35
2023/11/30 08:20:58;;;;;;;17.67;14.05;;;;;;;0.55;100.00;100188.81;5096720;28;20003;-35
2023/11/30 08:23:23;;;;;;;18.20;14.77;;;;;;;0.37;100.00;100171.34;5096343;28;20024;-35
2023/11/30 08:25:48;;;;;;;13.70;11.80;;;;;;;0.50;100.00;100184.03;5096448;28;20476;-35
2023/11/30 08:28:16;;;;;;;14.30;12.73;;;;;;;0.62;100.00;100187.88;5095606;28;20430;-35
2023/11/30 08:30:42;;;;;;;19.17;15.35;;;;;;;0.46;100.00;100183.56;5095950;28;20039;-35
2023/11/30 08:33:07;;;;;;;16.07;14.10;;;;;;;0.42;100.00;100168.97;5096232;28;20024;-35
2023/11/30 08:35:32;;;;;;;15.90;14.20;;;;;;;0.55;100.00;100175.50;5096394;28;20064;-35
2023/11/30 08:37:58;;;;;;;20.23;15.50;;;;;;;0.38;100.00;100180.97;5095862;28;20074;-35
2023/11/30 08:40:24;;;;;;;16.73;14.65;;;;;;;0.41;100.00;100180.59;5096833;28;20024;-35
2023/11/30 08:42:49;;;;;;;19.77;14.23;;;;;;;0.44;100.00;100182.06;5096002;28;20448;-35
2023/11/30 08:45:15;;;;;;;19.25;14.52;;;;;;;0.43;100.00;100177.75;5096265;28;20044;-35
2023/11/30 08:47:42;;;;;;;19.92;15.60;;;;;;;0.42;100.00;100179.59;5096093;28;20042;-35
2023/11/30 08:50:07;;;;;;;20.52;15.45;;;;;;;0.42;100.00;100173.44;5095788;28;20064;-35
2023/11/30 08:52:33;;;;;;;17.40;14.18;;;;;;;0.55;100.00;100175.50;5095811;28;20032;-35
2023/11/30 08:54:58;;;;;;;18.93;15.47;;;;;;;0.43;100.00;100161.81;5095512;28;20089;-35
2023/11/30 08:57:23;;;;;;;16.07;14.07;;;;;;;0.47;100.00;100163.09;5095922;28;20046;-35
2023/11/30 08:59:49;;;;;;;17.03;13.50;;;;;;;0.66;100.00;100185.69;5095915;28;20052;-35
2023/11/30 09:02:15;;;;;;;14.83;12.87;;;;;;;0.61;100.00;100170.25;5095532;28;20491;-34
2023/11/30 09:04:40;;;;;;;15.05;12.80;;;;;;;0.67;100.00;100185.50;5095563;28;20270;-35
2023/11/30 09:07:06;;;;;;;20.05;16.02;;;;;;;0.41;100.00;100171.81;5096114;28;20028;-35
2023/11/30 09:09:31;;;;;;;16.37;14.17;;;;;;;0.59;100.00;100182.94;5095134;28;20030;-35
2023/11/30 09:11:56;;;;;;;15.80;14.20;;;;;;;0.44;100.00;100172.28;5095411;28;20048;-35
2023/11/30 09:14:22;;;;;;;20.17;15.00;;;;;;;0.46;100.00;100191.53;5095349;28;20084;-35
2023/11/30 09:16:48;;;;;;;16.23;14.02;;;;;;;0.58;100.00;100185.75;5094043;28;20020;-35
2023/11/30 09:19:13;;;;;;;19.27;15.88;;;;;;;0.39;100.00;100189.75;5095538;28;20024;-35
2023/11/30 09:21:39;;;;;;;19.07;16.57;;;;;;;0.40;100.00;100194.09;5095338;28;20109;-35
2023/11/30 09:24:04;;;;;;;21.07;15.83;;;;;;;0.41;100.00;100188.59;5094932;28;20468;-35
2023/11/30 09:26:33;;;;;;;19.08;16.05;;;;;;;0.41;100.00;100187.78;5095092;28;20510;-35
2023/11/30 09:28:58;;;;;;;16.48;14.73;;;;;;;0.56;100.00;100185.13;5094722;28;20476;-35
2023/11/30 09:31:23;;;;;;;18.87;15.57;;;;;;;0.47;100.00;100168.41;5094053;28;20024;-35
2023/11/30 09:33:49;;;;;;;20.67;16.03;;;;;;;0.63;100.00;100181.53;5095014;28;20153;-35
2023/11/30 09:36:14;;;;;;;19.13;16.60;;;;;;;0.56;100.00;100183.28;5094871;28;20027;-35
2023/11/30 09:38:40;;;;;;;18.90;15.60;;;;;;;0.61;100.00;100180.09;5095351;28;20039;-35
2023/11/30 09:41:06;;;;;;;19.80;16.17;;;;;;;0.70;100.00;100181.66;5094032;28;20032;-35
2023/11/30 09:43:32;;;;;;;19.38;16.92;;;;;;;0.66;100.00;100183.03;5095581;28;20027;-35
2023/11/30 09:45:58;;;;;;;21.73;15.93;;;;;;;0.65;100.00;100187.53;5095619;28;20035;-35
2023/11/30 09:48:24;;;;;;;16.67;14.97;;;;;;;0.71;100.00;100186.78;5094398;28;20027;-35
2023/11/30 09:50:50;;;;;;;17.15;14.65;;;;;;;0.86;100.00;100183.31;5094680;28;20042;-35
2023/11/30 09:53:15;;;;;;;21.38;17.00;;;;;;;0.81;100.00;100180.38;5094303;28;20104;-35
2023/11/30 09:55:42;;;;;;;18.10;15.93;;;;;;;0.87;100.00;100179.63;5094886;28;20035;-35
2023/11/30 09:58:07;;;;;;;19.75;16.25;;;;;;;0.77;100.00;100193.22;5095047;28;20420;-35
2023/11/30 10:00:33;;;;;;;19.00;16.08;;;;;;;0.77;100.00;100186.03;5095318;28;20067;-35
2023/11/30 10:02:59;;;;;;;16.33;14.20;;;;;;;0.65;100.00;100173.41;5095199;28;20024;-35
2023/11/30 10:05:25;;;;;;;16.83;15.02;;;;;;;0.80;100.00;100189.38;5094364;28;20265;-35
2023/11/30 10:07:51;;;;;;;17.55;14.23;;;;;;;0.84;100.00;100190.66;5094555;28;20036;-35
2023/11/30 10:10:16;;;;;;;16.45;14.65;;;;;;;0.85;100.00;100184.31;5094822;28;20028;-35
2023/11/30 10:12:42;;;;;;;16.63;14.27;;;;;;;0.96;100.00;100189.16;5094275;28;20054;-35
2023/11/30 10:15:09;;;;;;;16.80;14.95;;;;;;;1.07;100.00;100185.22;5093960;28;20024;-35
2023/11/30 10:17:36;;;;;;;18.23;15.50;;;;;;;0.94;100.00;100193.88;5093801;28;20107;-35
2023/11/30 10:20:04;;;;;;;16.48;14.68;;;;;;;1.10;100.00;100185.66;5094141;28;20023;-35
2023/11/30 10:22:30;;;;;;;17.23;15.27;;;;;;;1.08;100.00;100182.38;5094086;28;20042;-35
2023/11/30 10:24:55;;;;;;;18.10;16.23;;;;;;;1.14;100.00;100186.97;5094058;28;20015;-35
2023/11/30 10:27:24;;;;;;;18.23;15.90;;;;;;;1.07;100.00;100182.53;5094588;28;20060;-35
2023/11/30 10:29:51;;;;;;;17.67;15.77;;;;;;;1.10;100.00;100190.19;5093935;28;20035;-35
2023/11/30 10:32:17;;;;;;;17.45;15.35;;;;;;;1.23;100.00;100180.53;5093939;28;20035;-35
2023/11/30 10:34:47;;;;;;;17.30;15.45;;;;;;;1.21;100.00;100171.88;5093859;28;20020;-35
2023/11/30 10:37:20;;;;;;;19.45;16.63;;;;;;;1.19;100.00;100192.56;5093854;28;20032;-35
2023/11/30 10:39:55;;;;;;;19.40;16.30;;;;;;;1.20;100.00;100193.38;5093803;28;20024;-35
2023/11/30 10:42:23;;;;;;;19.52;17.02;;;;;;;1.26;100.00;100185.44;5093527;28;20027;-35
2023/11/30 10:44:51;;;;;;;22.38;17.33;;;;;;;1.23;100.00;100191.19;5093713;28;20024;-35
2023/11/30 10:47:18;;;;;;;23.30;18.55;;;;;;;1.28;100.00;100186.13;5094587;28;20039;-35
2023/11/30 10:49:46;;;;;;;21.33;17.92;;;;;;;1.36;100.00;100179.00;5093922;28;20055;-35
2023/11/30 10:52:13;;;;;;;21.27;18.48;;;;;;;1.39;100.00;100175.97;5094035;28;20035;-35
2023/11/30 10:54:44;;;;;;;23.20;19.35;;;;;;;1.40;100.00;100169.63;5093438;28;20028;-35
2023/11/30 10:57:10;;;;;;;27.42;21.70;;;;;;;1.31;100.00;100168.09;5094081;28;20483;-35
2023/11/30 10:59:35;;;;;;;26.33;21.63;;;;;;;1.47;100.00;100175.88;5093599;28;20024;-35
2023/11/30 11:02:05;;;;;;;26.90;21.70;;;;;;;1.57;100.00;100187.06;5094192;28;20107;-35
2023/11/30 11:04:30;;;;;;;24.00;20.13;;;;;;;1.63;100.00;100188.16;5093575;28;20274;-35
2023/11/30 11:07:03;;;;;;;26.73;21.25;;;;;;;1.64;100.00;100177.28;5093666;28;20035;-35